TimePST,TemperatureF,Dew PointF,Humidity,Sea Level PressureIn,VisibilityMPH,Wind Direction,Wind SpeedMPH,Gust SpeedMPH,PrecipitationIn,Events,Conditions,WindDirDegrees,DateUTC
12:25 AM,24.8,21.2,86,30.42,0.5,NNE,3.5,-,N/A,Fog,Light Freezing Fog,20,2013-02-02 08:25:00
12:53 AM,24.8,21.2,86,30.42,0.2,Calm,Calm,-,N/A,Fog,Light Freezing Fog,0,2013-02-02 08:53:00
1:18 AM,26.6,23.0,86,30.42,0.2,Calm,Calm,-,N/A,Fog,Light Freezing Fog,0,2013-02-02 09:18:00
1:53 AM,27.0,24.1,89,30.50,0.1,Calm,Calm,-,N/A,Fog,Light Freezing Fog,0,2013-02-02 09:53:00
2:53 AM,28.9,26.1,89,30.50,0.1,Calm,Calm,-,N/A,Fog,Light Freezing Fog,0,2013-02-02 10:53:00
3:53 AM,30.0,27.0,88,30.50,0.1,NE,8.1,-,N/A,Fog,Light Freezing Fog,40,2013-02-02 11:53:00
4:53 AM,28.9,26.1,89,30.50,0.1,ENE,5.8,-,N/A,Fog,Light Freezing Fog,70,2013-02-02 12:53:00
5:53 AM,28.9,25.0,85,30.50,0.1,NE,4.6,-,N/A,Fog,Light Freezing Fog,50,2013-02-02 13:53:00
6:53 AM,28.9,25.0,85,30.50,0.1,NE,6.9,-,N/A,Fog,Light Freezing Fog,50,2013-02-02 14:53:00
7:37 AM,28.4,24.8,86,30.43,0.1,NE,6.9,-,N/A,Fog,Light Freezing Fog,50,2013-02-02 15:37:00
7:53 AM,28.9,25.0,85,30.52,0.1,NE,5.8,-,N/A,Fog,Light Freezing Fog,50,2013-02-02 15:53:00
8:53 AM,30.9,27.0,85,30.52,0.1,NE,6.9,-,N/A,Fog,Light Freezing Fog,40,2013-02-02 16:53:00
9:53 AM,32.0,28.0,85,30.53,0.1,NE,6.9,-,N/A,Fog,Light Freezing Fog,50,2013-02-02 17:53:00
10:53 AM,32.0,28.9,88,30.52,0.1,NE,5.8,-,N/A,Fog,Light Freezing Fog,40,2013-02-02 18:53:00
11:33 AM,32.0,28.4,87,30.43,0.1,NE,6.9,-,N/A,Fog,Light Freezing Fog,50,2013-02-02 19:33:00
11:53 AM,32.0,28.9,88,30.50,0.1,NNE,6.9,-,N/A,Fog,Light Freezing Fog,30,2013-02-02 19:53:00
12:53 PM,33.1,30.0,89,30.47,0.1,NE,6.9,-,N/A,Fog,Light Freezing Fog,40,2013-02-02 20:53:00
1:38 PM,33.8,30.2,87,30.38,0.1,ENE,5.8,-,N/A,Fog,Light Freezing Fog,60,2013-02-02 21:38:00
1:53 PM,34.0,30.0,85,30.45,0.1,NNE,5.8,-,N/A,Fog,Fog,30,2013-02-02 21:53:00
2:33 PM,33.8,30.2,87,30.37,0.1,NNE,6.9,-,N/A,Fog,Fog,30,2013-02-02 22:33:00
2:53 PM,34.0,30.9,89,30.43,0.1,NNE,6.9,-,N/A,Fog,Fog,30,2013-02-02 22:53:00
3:01 PM,33.8,30.2,87,30.36,0.1,ENE,6.9,-,N/A,Fog,Fog,60,2013-02-02 23:01:00
3:15 PM,33.8,30.2,87,30.36,0.1,NNE,8.1,-,N/A,Fog,Fog,30,2013-02-02 23:15:00
3:53 PM,35.1,30.9,85,30.41,0.1,NE,5.8,-,N/A,Fog,Fog,40,2013-02-02 23:53:00
4:53 PM,34.0,30.9,89,30.40,0.1,NE,3.5,-,N/A,Fog,Fog,40,2013-02-03 00:53:00
5:53 PM,34.0,30.9,89,30.37,0.1,NE,4.6,-,N/A,Fog,Fog,50,2013-02-03 01:53:00
6:53 PM,34.0,30.0,85,30.34,0.1,NNE,5.8,-,N/A,Fog,Fog,30,2013-02-03 02:53:00
7:53 PM,34.0,30.0,85,30.32,0.1,Calm,Calm,-,N/A,Fog,Fog,0,2013-02-03 03:53:00
8:53 PM,34.0,30.0,85,30.31,0.1,NNW,3.5,-,N/A,Fog,Fog,340,2013-02-03 04:53:00
9:53 PM,34.0,28.9,82,30.30,0.1,NE,4.6,-,N/A,Fog,Fog,50,2013-02-03 05:53:00
10:53 PM,34.0,28.0,79,30.29,0.1,NE,4.6,-,N/A,Fog,Fog,40,2013-02-03 06:53:00
11:53 PM,33.1,28.0,82,30.28,0.1,Calm,Calm,-,N/A,Fog,Fog,0,2013-02-03 07:53:00